sensor_id;sensor_type;location;lat;lon;timestamp;temperature;humidity
45837;DHT22;31548;51.420;-0.040;2022-12-18T00:01:56;-1.60;99.90
45837;DHT22;31548;51.420;-0.040;2022-12-18T00:04:26;-1.60;99.90
45837;DHT22;31548;51.420;-0.040;2022-12-18T00:06:54;-1.60;99.90
45837;DHT22;31548;51.420;-0.040;2022-12-18T00:09:21;-1.60;99.90
45837;DHT22;31548;51.420;-0.040;2022-12-18T00:11:50;-1.60;99.90
45837;DHT22;31548;51.420;-0.040;2022-12-18T00:14:18;-1.70;99.90
45837;DHT22;31548;51.420;-0.040;2022-12-18T00:16:46;-1.60;99.90
45837;DHT22;31548;51.420;-0.040;2022-12-18T00:19:14;-1.60;99.90
45837;DHT22;31548;51.420;-0.040;2022-12-18T00:21:43;-1.50;99.90
45837;DHT22;31548;51.420;-0.040;2022-12-18T00:24:11;-1.60;99.90
45837;DHT22;31548;51.420;-0.040;2022-12-18T00:26:39;-1.50;99.90
45837;DHT22;31548;51.420;-0.040;2022-12-18T00:29:12;-1.50;99.90
45837;DHT22;31548;51.420;-0.040;2022-12-18T00:31:43;-1.60;99.90
45837;DHT22;31548;51.420;-0.040;2022-12-18T00:34:12;-1.60;99.90
45837;DHT22;31548;51.420;-0.040;2022-12-18T00:36:41;-1.60;99.90
45837;DHT22;31548;51.420;-0.040;2022-12-18T00:39:10;-1.60;99.90
45837;DHT22;31548;51.420;-0.040;2022-12-18T00:41:37;-1.70;99.90
45837;DHT22;31548;51.420;-0.040;2022-12-18T00:44:24;-1.60;99.90
45837;DHT22;31548;51.420;-0.040;2022-12-18T00:46:52;-1.60;99.90
45837;DHT22;31548;51.420;-0.040;2022-12-18T00:49:20;-1.70;99.90
45837;DHT22;31548;51.420;-0.040;2022-12-18T00:51:47;-1.70;99.90
45837;DHT22;31548;51.420;-0.040;2022-12-18T00:54:16;-1.70;99.90
45837;DHT22;31548;51.420;-0.040;2022-12-18T00:56:44;-1.70;99.90
45837;DHT22;31548;51.420;-0.040;2022-12-18T00:59:16;-1.70;99.90
45837;DHT22;31548;51.420;-0.040;2022-12-18T01:01:44;-1.70;99.90
45837;DHT22;31548;51.420;-0.040;2022-12-18T01:04:12;-1.80;99.90
45837;DHT22;31548;51.420;-0.040;2022-12-18T01:06:40;-1.80;99.90
45837;DHT22;31548;51.420;-0.040;2022-12-18T01:09:07;-1.90;99.90
45837;DHT22;31548;51.420;-0.040;2022-12-18T01:11:36;-1.90;99.90
45837;DHT22;31548;51.420;-0.040;2022-12-18T01:14:04;-1.90;99.90
45837;DHT22;31548;51.420;-0.040;2022-12-18T01:16:37;-1.90;99.90
45837;DHT22;31548;51.420;-0.040;2022-12-18T01:19:04;-1.90;99.90
45837;DHT22;31548;51.420;-0.040;2022-12-18T01:21:32;-1.90;99.90
45837;DHT22;31548;51.420;-0.040;2022-12-18T01:24:03;-2.00;99.90
45837;DHT22;31548;51.420;-0.040;2022-12-18T01:26:31;-2.00;99.90
45837;DHT22;31548;51.420;-0.040;2022-12-18T01:28:58;-2.00;99.90
45837;DHT22;31548;51.420;-0.040;2022-12-18T01:31:28;-2.00;99.90
45837;DHT22;31548;51.420;-0.040;2022-12-18T01:33:57;-1.90;99.90
45837;DHT22;31548;51.420;-0.040;2022-12-18T01:36:34;-2.00;99.90
45837;DHT22;31548;51.420;-0.040;2022-12-18T01:39:09;-2.00;99.90
45837;DHT22;31548;51.420;-0.040;2022-12-18T01:41:41;-2.00;99.90
45837;DHT22;31548;51.420;-0.040;2022-12-18T01:44:57;-2.00;99.90
45837;DHT22;31548;51.420;-0.040;2022-12-18T01:50:13;-2.00;99.90
45837;DHT22;31548;51.420;-0.040;2022-12-18T01:52:47;-2.00;99.90
45837;DHT22;31548;51.420;-0.040;2022-12-18T01:55:18;-2.00;99.90
45837;DHT22;31548;51.420;-0.040;2022-12-18T01:57:47;-1.90;99.90
45837;DHT22;31548;51.420;-0.040;2022-12-18T02:00:18;-2.00;99.90
45837;DHT22;31548;51.420;-0.040;2022-12-18T02:02:47;-1.90;99.90
45837;DHT22;31548;51.420;-0.040;2022-12-18T02:08:20;-1.90;99.90
45837;DHT22;31548;51.420;-0.040;2022-12-18T02:18:55;-1.90;99.90
45837;DHT22;31548;51.420;-0.040;2022-12-18T02:22:07;-1.90;99.90
45837;DHT22;31548;51.420;-0.040;2022-12-18T02:24:41;-1.90;99.90
45837;DHT22;31548;51.420;-0.040;2022-12-18T02:27:13;-2.00;99.90
45837;DHT22;31548;51.420;-0.040;2022-12-18T02:29:54;-2.00;99.90
45837;DHT22;31548;51.420;-0.040;2022-12-18T02:32:37;-2.00;99.90
45837;DHT22;31548;51.420;-0.040;2022-12-18T02:35:09;-2.00;99.90
45837;DHT22;31548;51.420;-0.040;2022-12-18T02:37:39;-2.10;99.90
45837;DHT22;31548;51.420;-0.040;2022-12-18T02:40:10;-2.00;99.90
45837;DHT22;31548;51.420;-0.040;2022-12-18T02:42:38;-2.10;99.90
45837;DHT22;31548;51.420;-0.040;2022-12-18T02:45:08;-2.00;99.90
45837;DHT22;31548;51.420;-0.040;2022-12-18T02:47:39;-2.00;99.90
45837;DHT22;31548;51.420;-0.040;2022-12-18T02:50:34;-2.00;99.90
45837;DHT22;31548;51.420;-0.040;2022-12-18T02:53:15;-2.00;99.90
45837;DHT22;31548;51.420;-0.040;2022-12-18T02:56:12;-2.00;99.90
45837;DHT22;31548;51.420;-0.040;2022-12-18T03:04:42;-2.00;99.90
45837;DHT22;31548;51.420;-0.040;2022-12-18T03:07:30;-1.90;99.90
45837;DHT22;31548;51.420;-0.040;2022-12-18T03:10:01;-1.90;99.90
45837;DHT22;31548;51.420;-0.040;2022-12-18T03:12:32;-2.00;99.90
45837;DHT22;31548;51.420;-0.040;2022-12-18T03:17:48;-2.00;99.90
45837;DHT22;31548;51.420;-0.040;2022-12-18T03:20:20;-2.00;99.90
45837;DHT22;31548;51.420;-0.040;2022-12-18T03:22:53;-2.00;99.90
45837;DHT22;31548;51.420;-0.040;2022-12-18T03:25:23;-2.00;99.90
45837;DHT22;31548;51.420;-0.040;2022-12-18T03:27:56;-2.00;99.90
45837;DHT22;31548;51.420;-0.040;2022-12-18T03:30:29;-2.00;99.90
45837;DHT22;31548;51.420;-0.040;2022-12-18T03:33:08;-2.00;99.90
45837;DHT22;31548;51.420;-0.040;2022-12-18T03:35:41;-2.00;99.90
45837;DHT22;31548;51.420;-0.040;2022-12-18T03:38:11;-2.00;99.90
45837;DHT22;31548;51.420;-0.040;2022-12-18T03:43:25;-2.00;99.90
45837;DHT22;31548;51.420;-0.040;2022-12-18T03:46:06;-2.00;99.90
45837;DHT22;31548;51.420;-0.040;2022-12-18T03:48:41;-2.00;99.90
45837;DHT22;31548;51.420;-0.040;2022-12-18T03:51:22;-2.00;99.90
45837;DHT22;31548;51.420;-0.040;2022-12-18T03:53:59;-2.00;99.90
45837;DHT22;31548;51.420;-0.040;2022-12-18T03:56:35;-2.00;99.90
45837;DHT22;31548;51.420;-0.040;2022-12-18T03:59:05;-2.00;99.90
45837;DHT22;31548;51.420;-0.040;2022-12-18T04:01:35;-2.00;99.90
45837;DHT22;31548;51.420;-0.040;2022-12-18T04:04:05;-2.00;99.90
45837;DHT22;31548;51.420;-0.040;2022-12-18T04:06:37;-1.90;99.90
45837;DHT22;31548;51.420;-0.040;2022-12-18T04:09:07;-1.90;99.90
45837;DHT22;31548;51.420;-0.040;2022-12-18T04:11:40;-1.90;99.90
45837;DHT22;31548;51.420;-0.040;2022-12-18T04:14:08;-1.90;99.90
45837;DHT22;31548;51.420;-0.040;2022-12-18T04:16:41;-1.90;99.90
45837;DHT22;31548;51.420;-0.040;2022-12-18T04:19:12;-1.90;99.90
45837;DHT22;31548;51.420;-0.040;2022-12-18T04:21:42;-1.90;99.90
45837;DHT22;31548;51.420;-0.040;2022-12-18T04:24:11;-1.80;99.90
45837;DHT22;31548;51.420;-0.040;2022-12-18T04:26:44;-1.80;99.90
45837;DHT22;31548;51.420;-0.040;2022-12-18T04:29:23;-1.80;99.90
45837;DHT22;31548;51.420;-0.040;2022-12-18T04:31:50;-1.80;99.90
45837;DHT22;31548;51.420;-0.040;2022-12-18T04:34:18;-1.70;99.90
45837;DHT22;31548;51.420;-0.040;2022-12-18T04:36:51;-1.70;99.90
45837;DHT22;31548;51.420;-0.040;2022-12-18T04:39:20;-1.70;99.90
45837;DHT22;31548;51.420;-0.040;2022-12-18T04:41:49;-1.60;99.90
45837;DHT22;31548;51.420;-0.040;2022-12-18T04:44:17;-1.60;99.90
45837;DHT22;31548;51.420;-0.040;2022-12-18T04:46:44;-1.60;99.90
45837;DHT22;31548;51.420;-0.040;2022-12-18T04:49:12;-1.50;99.90
45837;DHT22;31548;51.420;-0.040;2022-12-18T04:51:39;-1.50;99.90
45837;DHT22;31548;51.420;-0.040;2022-12-18T04:54:06;-1.50;99.90
45837;DHT22;31548;51.420;-0.040;2022-12-18T04:56:34;-1.40;99.90
45837;DHT22;31548;51.420;-0.040;2022-12-18T04:59:01;-1.40;99.90
45837;DHT22;31548;51.420;-0.040;2022-12-18T05:01:29;-1.30;99.90
45837;DHT22;31548;51.420;-0.040;2022-12-18T05:04:01;-1.30;99.90
45837;DHT22;31548;51.420;-0.040;2022-12-18T05:06:29;-1.30;99.90
45837;DHT22;31548;51.420;-0.040;2022-12-18T05:08:56;-1.20;99.90
45837;DHT22;31548;51.420;-0.040;2022-12-18T05:11:23;-1.20;99.90
45837;DHT22;31548;51.420;-0.040;2022-12-18T05:13:51;-1.10;99.90
45837;DHT22;31548;51.420;-0.040;2022-12-18T05:16:18;-1.10;99.90
45837;DHT22;31548;51.420;-0.040;2022-12-18T05:18:45;-1.00;99.90
45837;DHT22;31548;51.420;-0.040;2022-12-18T05:21:13;-0.90;99.90
45837;DHT22;31548;51.420;-0.040;2022-12-18T05:23:40;-0.80;99.90
45837;DHT22;31548;51.420;-0.040;2022-12-18T05:26:08;-0.80;99.90
45837;DHT22;31548;51.420;-0.040;2022-12-18T05:28:38;-0.80;99.90
45837;DHT22;31548;51.420;-0.040;2022-12-18T05:31:06;-0.70;99.90
45837;DHT22;31548;51.420;-0.040;2022-12-18T05:33:34;-0.70;99.90
45837;DHT22;31548;51.420;-0.040;2022-12-18T05:36:03;-0.60;99.90
45837;DHT22;31548;51.420;-0.040;2022-12-18T05:38:32;-0.60;99.90
45837;DHT22;31548;51.420;-0.040;2022-12-18T05:41:00;-0.60;99.90
45837;DHT22;31548;51.420;-0.040;2022-12-18T05:43:28;-0.50;99.90
45837;DHT22;31548;51.420;-0.040;2022-12-18T05:45:55;-0.50;99.90
45837;DHT22;31548;51.420;-0.040;2022-12-18T05:48:24;-0.50;99.90
45837;DHT22;31548;51.420;-0.040;2022-12-18T05:50:51;-0.40;99.90
45837;DHT22;31548;51.420;-0.040;2022-12-18T05:53:20;-0.40;99.90
45837;DHT22;31548;51.420;-0.040;2022-12-18T05:55:47;-0.40;99.90
45837;DHT22;31548;51.420;-0.040;2022-12-18T05:58:15;-0.30;99.90
45837;DHT22;31548;51.420;-0.040;2022-12-18T06:00:44;-0.30;99.90
45837;DHT22;31548;51.420;-0.040;2022-12-18T06:03:13;-0.30;99.90
45837;DHT22;31548;51.420;-0.040;2022-12-18T06:05:44;-0.30;99.90
45837;DHT22;31548;51.420;-0.040;2022-12-18T06:08:13;-0.20;99.90
45837;DHT22;31548;51.420;-0.040;2022-12-18T06:10:41;-0.20;99.90
45837;DHT22;31548;51.420;-0.040;2022-12-18T06:13:08;-0.20;99.90
45837;DHT22;31548;51.420;-0.040;2022-12-18T06:15:37;-0.20;99.90
45837;DHT22;31548;51.420;-0.040;2022-12-18T06:18:04;-0.20;99.90
45837;DHT22;31548;51.420;-0.040;2022-12-18T06:20:32;-0.10;99.90
45837;DHT22;31548;51.420;-0.040;2022-12-18T06:23:00;-0.10;99.90
45837;DHT22;31548;51.420;-0.040;2022-12-18T06:25:27;-0.10;99.90
45837;DHT22;31548;51.420;-0.040;2022-12-18T06:27:54;-0.10;99.90
45837;DHT22;31548;51.420;-0.040;2022-12-18T06:30:22;0.00;99.90
45837;DHT22;31548;51.420;-0.040;2022-12-18T06:32:50;0.00;99.90
45837;DHT22;31548;51.420;-0.040;2022-12-18T06:35:23;0.00;99.90
45837;DHT22;31548;51.420;-0.040;2022-12-18T06:37:50;0.00;99.90
45837;DHT22;31548;51.420;-0.040;2022-12-18T06:40:18;0.10;99.90
45837;DHT22;31548;51.420;-0.040;2022-12-18T06:42:45;0.10;99.90
45837;DHT22;31548;51.420;-0.040;2022-12-18T06:45:13;0.10;99.90
45837;DHT22;31548;51.420;-0.040;2022-12-18T06:47:40;0.10;99.90
45837;DHT22;31548;51.420;-0.040;2022-12-18T06:50:07;0.10;99.90
45837;DHT22;31548;51.420;-0.040;2022-12-18T06:52:35;0.20;99.90
45837;DHT22;31548;51.420;-0.040;2022-12-18T06:55:02;0.10;99.90
45837;DHT22;31548;51.420;-0.040;2022-12-18T06:57:30;0.20;99.90
45837;DHT22;31548;51.420;-0.040;2022-12-18T06:59:57;0.20;99.90
45837;DHT22;31548;51.420;-0.040;2022-12-18T07:02:25;0.20;99.90
45837;DHT22;31548;51.420;-0.040;2022-12-18T07:04:52;0.30;99.90
45837;DHT22;31548;51.420;-0.040;2022-12-18T07:07:19;0.20;99.90
45837;DHT22;31548;51.420;-0.040;2022-12-18T07:09:48;0.30;99.90
45837;DHT22;31548;51.420;-0.040;2022-12-18T07:12:16;0.30;99.90
45837;DHT22;31548;51.420;-0.040;2022-12-18T07:14:43;0.20;99.90
45837;DHT22;31548;51.420;-0.040;2022-12-18T07:17:11;0.40;99.90
45837;DHT22;31548;51.420;-0.040;2022-12-18T07:19:39;0.30;99.90
45837;DHT22;31548;51.420;-0.040;2022-12-18T07:22:06;0.40;99.90
45837;DHT22;31548;51.420;-0.040;2022-12-18T07:24:34;0.40;99.90
45837;DHT22;31548;51.420;-0.040;2022-12-18T07:27:02;0.40;99.90
45837;DHT22;31548;51.420;-0.040;2022-12-18T07:29:30;0.40;99.90
45837;DHT22;31548;51.420;-0.040;2022-12-18T07:31:57;0.50;99.90
45837;DHT22;31548;51.420;-0.040;2022-12-18T07:34:25;0.40;99.90
45837;DHT22;31548;51.420;-0.040;2022-12-18T07:36:52;0.40;99.90
45837;DHT22;31548;51.420;-0.040;2022-12-18T07:39:19;0.50;99.90
45837;DHT22;31548;51.420;-0.040;2022-12-18T07:41:46;0.50;99.90
45837;DHT22;31548;51.420;-0.040;2022-12-18T07:44:34;0.50;99.90
45837;DHT22;31548;51.420;-0.040;2022-12-18T07:47:01;0.50;99.90
45837;DHT22;31548;51.420;-0.040;2022-12-18T07:49:34;0.50;99.90
45837;DHT22;31548;51.420;-0.040;2022-12-18T07:52:02;0.50;99.90
45837;DHT22;31548;51.420;-0.040;2022-12-18T07:54:29;0.60;99.90
45837;DHT22;31548;51.420;-0.040;2022-12-18T07:56:56;0.60;99.90
45837;DHT22;31548;51.420;-0.040;2022-12-18T07:59:23;0.50;99.90
45837;DHT22;31548;51.420;-0.040;2022-12-18T08:01:51;0.50;99.90
45837;DHT22;31548;51.420;-0.040;2022-12-18T08:04:18;0.60;99.90
45837;DHT22;31548;51.420;-0.040;2022-12-18T08:06:46;0.60;99.90
45837;DHT22;31548;51.420;-0.040;2022-12-18T08:09:14;0.60;99.90
45837;DHT22;31548;51.420;-0.040;2022-12-18T08:11:41;0.60;99.90
45837;DHT22;31548;51.420;-0.040;2022-12-18T08:14:09;0.60;99.90
45837;DHT22;31548;51.420;-0.040;2022-12-18T08:16:36;0.60;99.90
45837;DHT22;31548;51.420;-0.040;2022-12-18T08:19:04;0.60;99.90
45837;DHT22;31548;51.420;-0.040;2022-12-18T08:21:31;0.60;99.90
45837;DHT22;31548;51.420;-0.040;2022-12-18T08:24:00;0.60;99.90
45837;DHT22;31548;51.420;-0.040;2022-12-18T08:26:30;0.70;99.90
45837;DHT22;31548;51.420;-0.040;2022-12-18T08:28:59;0.60;99.90
45837;DHT22;31548;51.420;-0.040;2022-12-18T08:31:28;0.70;99.90
45837;DHT22;31548;51.420;-0.040;2022-12-18T08:33:56;0.70;99.90
45837;DHT22;31548;51.420;-0.040;2022-12-18T08:36:24;0.70;99.90
45837;DHT22;31548;51.420;-0.040;2022-12-18T08:38:53;0.70;99.90
45837;DHT22;31548;51.420;-0.040;2022-12-18T08:41:21;0.70;99.90
45837;DHT22;31548;51.420;-0.040;2022-12-18T08:43:48;0.70;99.90
45837;DHT22;31548;51.420;-0.040;2022-12-18T08:46:39;0.70;99.90
45837;DHT22;31548;51.420;-0.040;2022-12-18T08:49:08;0.70;99.90
45837;DHT22;31548;51.420;-0.040;2022-12-18T08:51:35;0.70;99.90
45837;DHT22;31548;51.420;-0.040;2022-12-18T08:54:03;0.70;99.90
45837;DHT22;31548;51.420;-0.040;2022-12-18T08:56:32;0.70;99.90
45837;DHT22;31548;51.420;-0.040;2022-12-18T08:59:01;0.80;99.90
45837;DHT22;31548;51.420;-0.040;2022-12-18T09:01:28;0.80;99.90
45837;DHT22;31548;51.420;-0.040;2022-12-18T09:03:56;0.80;99.90
45837;DHT22;31548;51.420;-0.040;2022-12-18T09:06:24;0.80;99.90
45837;DHT22;31548;51.420;-0.040;2022-12-18T09:08:51;0.80;99.90
45837;DHT22;31548;51.420;-0.040;2022-12-18T09:11:22;0.90;99.90
45837;DHT22;31548;51.420;-0.040;2022-12-18T09:13:50;0.80;99.90
45837;DHT22;31548;51.420;-0.040;2022-12-18T09:16:18;0.90;99.90
45837;DHT22;31548;51.420;-0.040;2022-12-18T09:18:47;1.00;99.90
45837;DHT22;31548;51.420;-0.040;2022-12-18T09:21:20;1.00;99.90
45837;DHT22;31548;51.420;-0.040;2022-12-18T09:23:51;1.00;99.90
45837;DHT22;31548;51.420;-0.040;2022-12-18T09:26:19;1.00;99.90
45837;DHT22;31548;51.420;-0.040;2022-12-18T09:28:46;1.10;99.90
45837;DHT22;31548;51.420;-0.040;2022-12-18T09:31:14;1.10;99.90
45837;DHT22;31548;51.420;-0.040;2022-12-18T09:33:42;1.10;99.90
45837;DHT22;31548;51.420;-0.040;2022-12-18T09:36:11;1.20;99.90
45837;DHT22;31548;51.420;-0.040;2022-12-18T09:38:39;1.20;99.90
45837;DHT22;31548;51.420;-0.040;2022-12-18T09:43:52;1.20;99.90
45837;DHT22;31548;51.420;-0.040;2022-12-18T09:46:28;1.20;99.90
45837;DHT22;31548;51.420;-0.040;2022-12-18T09:49:00;1.30;99.90
45837;DHT22;31548;51.420;-0.040;2022-12-18T09:51:39;1.30;99.90
45837;DHT22;31548;51.420;-0.040;2022-12-18T09:54:20;1.30;99.90
45837;DHT22;31548;51.420;-0.040;2022-12-18T09:56:49;1.40;99.90
45837;DHT22;31548;51.420;-0.040;2022-12-18T09:59:31;1.40;99.90
45837;DHT22;31548;51.420;-0.040;2022-12-18T10:02:15;1.40;99.90
45837;DHT22;31548;51.420;-0.040;2022-12-18T10:04:46;1.40;99.90
45837;DHT22;31548;51.420;-0.040;2022-12-18T10:18:50;1.40;99.90
45837;DHT22;31548;51.420;-0.040;2022-12-18T10:21:28;1.50;99.90
45837;DHT22;31548;51.420;-0.040;2022-12-18T10:26:52;1.50;99.90
45837;DHT22;31548;51.420;-0.040;2022-12-18T10:29:20;1.60;99.90
45837;DHT22;31548;51.420;-0.040;2022-12-18T10:31:47;1.50;99.90
45837;DHT22;31548;51.420;-0.040;2022-12-18T10:34:14;1.60;99.90
45837;DHT22;31548;51.420;-0.040;2022-12-18T10:36:42;1.60;99.90
45837;DHT22;31548;51.420;-0.040;2022-12-18T10:39:22;1.60;99.90
45837;DHT22;31548;51.420;-0.040;2022-12-18T10:41:49;1.70;99.90
45837;DHT22;31548;51.420;-0.040;2022-12-18T10:44:21;1.70;99.90
45837;DHT22;31548;51.420;-0.040;2022-12-18T10:47:03;1.70;99.90
45837;DHT22;31548;51.420;-0.040;2022-12-18T10:49:47;1.80;99.90
45837;DHT22;31548;51.420;-0.040;2022-12-18T10:52:21;1.80;99.90
45837;DHT22;31548;51.420;-0.040;2022-12-18T10:54:53;1.80;99.90
45837;DHT22;31548;51.420;-0.040;2022-12-18T11:02:52;1.90;99.90
45837;DHT22;31548;51.420;-0.040;2022-12-18T11:05:33;1.90;99.90
45837;DHT22;31548;51.420;-0.040;2022-12-18T11:08:03;1.90;99.90
45837;DHT22;31548;51.420;-0.040;2022-12-18T11:10:37;2.00;99.90
45837;DHT22;31548;51.420;-0.040;2022-12-18T11:13:21;2.00;99.90
45837;DHT22;31548;51.420;-0.040;2022-12-18T11:15:49;2.10;99.90
45837;DHT22;31548;51.420;-0.040;2022-12-18T11:21:04;2.10;99.90
45837;DHT22;31548;51.420;-0.040;2022-12-18T11:23:33;2.20;99.90
45837;DHT22;31548;51.420;-0.040;2022-12-18T11:26:03;2.20;99.90
45837;DHT22;31548;51.420;-0.040;2022-12-18T11:28:49;2.20;99.90
45837;DHT22;31548;51.420;-0.040;2022-12-18T11:31:28;2.30;99.90
45837;DHT22;31548;51.420;-0.040;2022-12-18T11:34:20;2.30;99.90
45837;DHT22;31548;51.420;-0.040;2022-12-18T11:36:58;2.30;99.90
45837;DHT22;31548;51.420;-0.040;2022-12-18T11:39:42;2.40;99.90
45837;DHT22;31548;51.420;-0.040;2022-12-18T11:42:24;2.40;99.90
45837;DHT22;31548;51.420;-0.040;2022-12-18T11:44:59;2.40;99.90
45837;DHT22;31548;51.420;-0.040;2022-12-18T11:47:49;2.50;99.90
45837;DHT22;31548;51.420;-0.040;2022-12-18T11:50:24;2.50;99.90
45837;DHT22;31548;51.420;-0.040;2022-12-18T11:52:52;2.50;99.90
45837;DHT22;31548;51.420;-0.040;2022-12-18T11:55:39;2.50;99.90
45837;DHT22;31548;51.420;-0.040;2022-12-18T12:01:07;2.50;99.90
45837;DHT22;31548;51.420;-0.040;2022-12-18T12:03:54;2.50;99.90
45837;DHT22;31548;51.420;-0.040;2022-12-18T12:06:39;2.50;99.90
45837;DHT22;31548;51.420;-0.040;2022-12-18T12:09:25;2.50;99.90
45837;DHT22;31548;51.420;-0.040;2022-12-18T12:14:55;2.60;99.90
45837;DHT22;31548;51.420;-0.040;2022-12-18T12:17:59;2.60;99.90
45837;DHT22;31548;51.420;-0.040;2022-12-18T12:23:48;2.60;99.90
45837;DHT22;31548;51.420;-0.040;2022-12-18T12:26:27;2.60;99.90
45837;DHT22;31548;51.420;-0.040;2022-12-18T12:40:43;2.60;99.90
45837;DHT22;31548;51.420;-0.040;2022-12-18T12:43:40;2.60;99.90
45837;DHT22;31548;51.420;-0.040;2022-12-18T12:46:19;2.70;99.90
45837;DHT22;31548;51.420;-0.040;2022-12-18T12:48:52;2.70;99.90
45837;DHT22;31548;51.420;-0.040;2022-12-18T12:51:28;2.70;99.90
45837;DHT22;31548;51.420;-0.040;2022-12-18T12:53:57;2.70;99.90
45837;DHT22;31548;51.420;-0.040;2022-12-18T12:56:39;2.80;99.90
45837;DHT22;31548;51.420;-0.040;2022-12-18T13:02:10;2.70;99.90
45837;DHT22;31548;51.420;-0.040;2022-12-18T13:07:14;2.80;99.90
45837;DHT22;31548;51.420;-0.040;2022-12-18T13:13:02;2.70;99.90
45837;DHT22;31548;51.420;-0.040;2022-12-18T13:15:43;2.80;99.90
45837;DHT22;31548;51.420;-0.040;2022-12-18T13:18:23;2.70;99.90
45837;DHT22;31548;51.420;-0.040;2022-12-18T13:21:01;2.70;99.90
45837;DHT22;31548;51.420;-0.040;2022-12-18T13:23:36;2.80;99.90
45837;DHT22;31548;51.420;-0.040;2022-12-18T13:31:13;2.70;99.90
45837;DHT22;31548;51.420;-0.040;2022-12-18T13:33:43;2.70;99.90
45837;DHT22;31548;51.420;-0.040;2022-12-18T13:36:32;2.80;99.90
45837;DHT22;31548;51.420;-0.040;2022-12-18T13:42:41;2.80;99.90
45837;DHT22;31548;51.420;-0.040;2022-12-18T13:45:01;2.70;99.90
45837;DHT22;31548;51.420;-0.040;2022-12-18T13:47:49;2.70;99.90
45837;DHT22;31548;51.420;-0.040;2022-12-18T13:50:23;2.80;99.90
45837;DHT22;31548;51.420;-0.040;2022-12-18T13:52:58;2.70;99.90
45837;DHT22;31548;51.420;-0.040;2022-12-18T13:55:26;2.70;99.90
45837;DHT22;31548;51.420;-0.040;2022-12-18T13:58:03;2.70;99.90
45837;DHT22;31548;51.420;-0.040;2022-12-18T14:00:31;2.80;99.90
45837;DHT22;31548;51.420;-0.040;2022-12-18T14:02:59;2.80;99.90
45837;DHT22;31548;51.420;-0.040;2022-12-18T14:05:32;2.90;99.90
45837;DHT22;31548;51.420;-0.040;2022-12-18T14:08:08;2.80;99.90
45837;DHT22;31548;51.420;-0.040;2022-12-18T14:10:49;2.80;99.90
45837;DHT22;31548;51.420;-0.040;2022-12-18T14:13:30;2.80;99.90
45837;DHT22;31548;51.420;-0.040;2022-12-18T14:16:00;2.80;99.90
45837;DHT22;31548;51.420;-0.040;2022-12-18T14:18:44;2.80;99.90
45837;DHT22;31548;51.420;-0.040;2022-12-18T14:21:23;2.80;99.90
45837;DHT22;31548;51.420;-0.040;2022-12-18T14:24:21;2.90;99.90
45837;DHT22;31548;51.420;-0.040;2022-12-18T14:26:50;2.90;99.90
45837;DHT22;31548;51.420;-0.040;2022-12-18T14:29:22;2.90;99.90
45837;DHT22;31548;51.420;-0.040;2022-12-18T14:32:15;2.90;99.90
45837;DHT22;31548;51.420;-0.040;2022-12-18T14:34:52;2.90;99.90
45837;DHT22;31548;51.420;-0.040;2022-12-18T14:37:23;3.00;99.90
45837;DHT22;31548;51.420;-0.040;2022-12-18T14:39:59;3.00;99.90
45837;DHT22;31548;51.420;-0.040;2022-12-18T14:42:36;3.00;99.90
45837;DHT22;31548;51.420;-0.040;2022-12-18T14:48:19;3.00;99.90
45837;DHT22;31548;51.420;-0.040;2022-12-18T14:51:01;3.00;99.90
45837;DHT22;31548;51.420;-0.040;2022-12-18T14:53:41;3.10;99.90
45837;DHT22;31548;51.420;-0.040;2022-12-18T14:56:30;3.10;99.90
45837;DHT22;31548;51.420;-0.040;2022-12-18T14:59:04;3.10;99.90
45837;DHT22;31548;51.420;-0.040;2022-12-18T15:01:36;3.10;99.90
45837;DHT22;31548;51.420;-0.040;2022-12-18T15:04:18;3.20;99.90
45837;DHT22;31548;51.420;-0.040;2022-12-18T15:09:40;3.10;99.90
45837;DHT22;31548;51.420;-0.040;2022-12-18T15:12:35;3.20;99.90
45837;DHT22;31548;51.420;-0.040;2022-12-18T15:15:03;3.20;99.90
45837;DHT22;31548;51.420;-0.040;2022-12-18T15:17:31;3.20;99.90
45837;DHT22;31548;51.420;-0.040;2022-12-18T15:20:01;3.20;99.90
45837;DHT22;31548;51.420;-0.040;2022-12-18T15:22:33;3.20;99.90
45837;DHT22;31548;51.420;-0.040;2022-12-18T15:25:02;3.30;99.90
45837;DHT22;31548;51.420;-0.040;2022-12-18T15:27:34;3.30;99.90
45837;DHT22;31548;51.420;-0.040;2022-12-18T15:32:37;3.40;99.90
45837;DHT22;31548;51.420;-0.040;2022-12-18T15:37:38;3.40;99.90
45837;DHT22;31548;51.420;-0.040;2022-12-18T15:40:12;3.40;99.90
45837;DHT22;31548;51.420;-0.040;2022-12-18T15:42:39;3.50;99.90
45837;DHT22;31548;51.420;-0.040;2022-12-18T15:45:25;3.50;99.90
45837;DHT22;31548;51.420;-0.040;2022-12-18T15:47:52;3.50;99.90
45837;DHT22;31548;51.420;-0.040;2022-12-18T15:50:21;3.50;99.90
45837;DHT22;31548;51.420;-0.040;2022-12-18T15:52:50;3.50;99.90
45837;DHT22;31548;51.420;-0.040;2022-12-18T15:55:20;3.50;99.90
45837;DHT22;31548;51.420;-0.040;2022-12-18T15:58:09;3.60;99.90
45837;DHT22;31548;51.420;-0.040;2022-12-18T16:00:38;3.60;99.90
45837;DHT22;31548;51.420;-0.040;2022-12-18T16:03:06;3.70;99.90
45837;DHT22;31548;51.420;-0.040;2022-12-18T16:05:33;3.70;99.90
45837;DHT22;31548;51.420;-0.040;2022-12-18T16:08:01;3.70;99.90
45837;DHT22;31548;51.420;-0.040;2022-12-18T16:10:28;3.70;99.90
45837;DHT22;31548;51.420;-0.040;2022-12-18T16:12:55;3.70;99.90
45837;DHT22;31548;51.420;-0.040;2022-12-18T16:15:23;3.80;99.90
45837;DHT22;31548;51.420;-0.040;2022-12-18T16:17:51;3.80;99.90
45837;DHT22;31548;51.420;-0.040;2022-12-18T16:20:20;3.80;99.90
45837;DHT22;31548;51.420;-0.040;2022-12-18T16:22:48;3.80;99.90
45837;DHT22;31548;51.420;-0.040;2022-12-18T16:27:44;3.90;99.90
45837;DHT22;31548;51.420;-0.040;2022-12-18T16:30:15;4.00;99.90
45837;DHT22;31548;51.420;-0.040;2022-12-18T16:32:43;4.00;99.90
45837;DHT22;31548;51.420;-0.040;2022-12-18T16:35:12;4.00;99.90
45837;DHT22;31548;51.420;-0.040;2022-12-18T16:37:40;4.00;99.90
45837;DHT22;31548;51.420;-0.040;2022-12-18T16:40:10;4.10;99.90
45837;DHT22;31548;51.420;-0.040;2022-12-18T16:42:38;4.10;99.90
45837;DHT22;31548;51.420;-0.040;2022-12-18T16:45:07;4.10;99.90
45837;DHT22;31548;51.420;-0.040;2022-12-18T16:47:35;4.20;99.90
45837;DHT22;31548;51.420;-0.040;2022-12-18T16:50:03;4.20;99.90
45837;DHT22;31548;51.420;-0.040;2022-12-18T16:52:31;4.20;99.90
45837;DHT22;31548;51.420;-0.040;2022-12-18T16:55:01;4.20;99.90
45837;DHT22;31548;51.420;-0.040;2022-12-18T16:57:29;4.30;99.90
45837;DHT22;31548;51.420;-0.040;2022-12-18T16:59:56;4.40;99.90
45837;DHT22;31548;51.420;-0.040;2022-12-18T17:02:31;4.40;99.90
45837;DHT22;31548;51.420;-0.040;2022-12-18T17:04:59;4.50;99.90
45837;DHT22;31548;51.420;-0.040;2022-12-18T17:07:26;4.50;99.90
45837;DHT22;31548;51.420;-0.040;2022-12-18T17:09:54;4.60;99.90
45837;DHT22;31548;51.420;-0.040;2022-12-18T17:12:22;4.60;99.90
45837;DHT22;31548;51.420;-0.040;2022-12-18T17:14:49;4.60;99.90
45837;DHT22;31548;51.420;-0.040;2022-12-18T17:17:17;4.70;99.90
45837;DHT22;31548;51.420;-0.040;2022-12-18T17:19:49;4.70;99.90
45837;DHT22;31548;51.420;-0.040;2022-12-18T17:22:16;4.90;99.90
45837;DHT22;31548;51.420;-0.040;2022-12-18T17:24:45;4.80;99.90
45837;DHT22;31548;51.420;-0.040;2022-12-18T17:27:12;4.90;99.90
45837;DHT22;31548;51.420;-0.040;2022-12-18T17:29:39;4.90;99.90
45837;DHT22;31548;51.420;-0.040;2022-12-18T17:32:15;4.90;99.90
45837;DHT22;31548;51.420;-0.040;2022-12-18T17:34:42;4.90;99.90
45837;DHT22;31548;51.420;-0.040;2022-12-18T17:37:10;5.00;99.90